Time;durP1;ratioP1;P1;durP2;ratioP2;P2;SDS_P1;SDS_P2;PMS_P1;PMS_P2;Temp;Humidity;BMP_temperature;BMP_pressure;BME280_temperature;BME280_humidity;BME280_pressure;Samples;Min_cycle;Max_cycle;Signal;HPM_P1;HPM_P2
2022/07/09 00:01:36;0.00;0.00;0.62;0.00;0.00;0.62;2.77;1.60;;;25.80;36.30;;;;;;2264775;61;20367;-56
2022/07/09 00:04:22;0.00;0.00;0.62;0.00;0.00;0.62;2.20;1.57;;;25.90;36.40;;;;;;2265718;61;20438;-55
2022/07/09 00:07:07;0.00;0.00;0.62;0.00;0.00;0.62;1.87;1.53;;;25.80;36.30;;;;;;2265284;61;20380;-54
2022/07/09 00:09:52;0.00;0.00;0.62;0.00;0.00;0.62;2.93;1.80;;;25.90;36.30;;;;;;2265412;61;20379;-55
2022/07/09 00:12:37;0.00;0.00;0.62;0.00;0.00;0.62;1.90;1.50;;;25.90;36.30;;;;;;2266326;61;20356;-56
2022/07/09 00:15:24;0.00;0.00;0.62;0.00;0.00;0.62;1.90;1.40;;;25.90;36.30;;;;;;2264462;61;20399;-55
2022/07/09 00:18:09;0.00;0.00;0.62;0.00;0.00;0.62;3.00;1.57;;;26.00;36.20;;;;;;2265993;61;20410;-55
2022/07/09 00:20:55;0.00;0.00;0.62;0.00;0.00;0.62;2.00;1.40;;;26.00;36.20;;;;;;2265056;61;20357;-55
2022/07/09 00:23:40;0.00;0.00;0.62;0.00;0.00;0.62;2.97;1.53;;;26.00;36.10;;;;;;2264446;61;20407;-57
2022/07/09 00:26:25;0.00;0.00;0.62;0.00;0.00;0.62;1.90;1.60;;;26.00;36.00;;;;;;2262023;61;20371;-56
2022/07/09 00:29:11;0.00;0.00;0.62;0.00;0.00;0.62;2.10;1.60;;;26.00;36.00;;;;;;2261842;61;20417;-56
2022/07/09 00:31:56;0.00;0.00;0.62;0.00;0.00;0.62;2.20;1.63;;;26.10;36.00;;;;;;2264486;61;20452;-58
2022/07/09 00:34:41;0.00;0.00;0.62;0.00;0.00;0.62;2.57;1.80;;;26.10;35.90;;;;;;2264537;61;20380;-58
2022/07/09 00:37:27;0.00;0.00;0.62;0.00;0.00;0.62;2.37;1.60;;;26.10;35.90;;;;;;2263677;61;20360;-57
2022/07/09 00:40:12;0.00;0.00;0.62;0.00;0.00;0.62;1.97;1.57;;;26.10;35.80;;;;;;2264508;61;20387;-53
2022/07/09 00:42:57;0.00;0.00;0.62;0.00;0.00;0.62;1.80;1.20;;;26.20;35.90;;;;;;2264610;61;20445;-58
2022/07/09 00:45:42;0.00;0.00;0.62;0.00;0.00;0.62;2.53;1.43;;;26.20;35.90;;;;;;2263603;61;20360;-57
2022/07/09 00:48:26;0.00;0.00;0.62;0.00;0.00;0.62;2.33;1.27;;;26.20;35.90;;;;;;2265281;61;20364;-56
2022/07/09 00:51:14;0.00;0.00;0.62;0.00;0.00;0.62;3.30;1.50;;;26.20;35.80;;;;;;2261845;61;20418;-56
2022/07/09 00:54:01;0.00;0.00;0.62;0.00;0.00;0.62;3.27;1.60;;;26.20;35.80;;;;;;2264009;61;20911;-55
2022/07/09 00:56:46;0.00;0.00;0.62;0.00;0.00;0.62;2.30;1.70;;;26.20;35.80;;;;;;2265284;61;20406;-53
2022/07/09 00:59:32;0.00;0.00;0.62;0.00;0.00;0.62;2.70;1.87;;;26.20;35.80;;;;;;2264601;61;20431;-52
2022/07/09 01:02:21;0.00;0.00;0.62;0.00;0.00;0.62;2.07;1.40;;;26.20;35.80;;;;;;2265098;61;20364;-51
2022/07/09 01:05:08;0.00;0.00;0.62;0.00;0.00;0.62;2.43;1.57;;;26.20;35.80;;;;;;2264862;61;20938;-56
2022/07/09 01:07:53;0.00;0.00;0.62;0.00;0.00;0.62;1.97;1.60;;;26.20;36.40;;;;;;2264332;61;20360;-52
2022/07/09 01:10:40;0.00;0.00;0.62;0.00;0.00;0.62;2.50;1.63;;;26.20;35.70;;;;;;2262630;61;20410;-52
2022/07/09 01:13:25;0.00;0.00;0.62;0.00;0.00;0.62;2.77;1.67;;;26.20;35.70;;;;;;2265723;61;20361;-52
2022/07/09 01:16:14;0.00;0.00;0.62;0.00;0.00;0.62;1.90;1.70;;;26.30;35.70;;;;;;2265286;61;20416;-52
2022/07/09 01:18:59;0.00;0.00;0.62;0.00;0.00;0.62;3.83;1.97;;;26.30;35.60;;;;;;2266411;61;20387;-52
2022/07/09 01:21:45;0.00;0.00;0.62;0.00;0.00;0.62;2.90;2.07;;;26.20;35.50;;;;;;2265630;61;21014;-53
2022/07/09 01:24:30;0.00;0.00;0.62;0.00;0.00;0.62;2.00;1.60;;;26.30;35.50;;;;;;2265904;61;20387;-52
2022/07/09 01:27:15;0.00;0.00;0.62;0.00;0.00;0.62;2.53;1.40;;;26.30;35.50;;;;;;2265779;61;20359;-52
2022/07/09 01:30:01;0.00;0.00;0.62;0.00;0.00;0.62;3.30;1.50;;;26.30;35.40;;;;;;2264181;61;20888;-53
2022/07/09 01:32:47;0.00;0.00;0.62;0.00;0.00;0.62;2.63;2.03;;;26.30;35.40;;;;;;2265702;61;20360;-53
2022/07/09 01:35:32;0.00;0.00;0.62;0.00;0.00;0.62;2.70;1.60;;;26.30;35.30;;;;;;2266048;61;20938;-51
2022/07/09 01:38:19;0.00;0.00;0.62;0.00;0.00;0.62;2.00;1.70;;;26.30;35.30;;;;;;2265363;61;20360;-53
2022/07/09 01:41:04;0.00;0.00;0.62;0.00;0.00;0.62;3.20;1.97;;;26.30;35.30;;;;;;2266216;61;20356;-55
2022/07/09 01:43:49;0.00;0.00;0.62;0.00;0.00;0.62;4.13;1.70;;;26.30;35.30;;;;;;2265378;61;20383;-55
2022/07/09 01:46:34;0.00;0.00;0.62;0.00;0.00;0.62;1.97;1.77;;;26.30;35.30;;;;;;2266339;61;20360;-53
2022/07/09 01:49:19;0.00;0.00;0.62;0.00;0.00;0.62;2.50;1.70;;;26.30;35.30;;;;;;2263561;61;20359;-52
2022/07/09 01:52:05;0.00;0.00;0.62;0.00;0.00;0.62;2.93;1.77;;;26.30;35.30;;;;;;2261408;61;20356;-52
2022/07/09 01:54:51;0.00;0.00;0.62;0.00;0.00;0.62;2.47;1.90;;;26.20;35.30;;;;;;2265340;61;20388;-50
2022/07/09 01:57:36;0.00;0.00;0.62;0.00;0.00;0.62;5.97;2.30;;;26.20;35.20;;;;;;2264940;61;20367;-55
2022/07/09 02:00:23;0.00;0.00;0.62;0.00;0.00;0.62;4.40;2.73;;;26.20;35.20;;;;;;2264226;61;20434;-56
2022/07/09 02:03:08;0.00;0.00;0.62;0.00;0.00;0.62;3.93;2.23;;;26.20;35.10;;;;;;2265343;61;20359;-55
2022/07/09 02:05:53;0.00;0.00;0.62;0.00;0.00;0.62;4.77;2.87;;;26.10;35.10;;;;;;2264349;61;20371;-54
2022/07/09 02:08:39;0.00;0.00;0.62;0.00;0.00;0.62;3.67;2.23;;;26.00;35.10;;;;;;2264739;61;20410;-51
2022/07/09 02:11:25;0.00;0.00;0.62;0.00;0.00;0.62;5.40;2.37;;;26.00;35.10;;;;;;2265554;61;20360;-53
2022/07/09 02:14:10;0.00;0.00;0.62;0.00;0.00;0.62;7.53;3.07;;;26.00;35.20;;;;;;2263894;61;21001;-51
2022/07/09 02:16:55;0.00;0.00;0.62;0.00;0.00;0.62;4.80;2.80;;;25.90;35.20;;;;;;2265487;61;20374;-53
2022/07/09 02:19:40;0.00;0.00;0.62;0.00;0.00;0.62;5.23;2.57;;;25.80;35.10;;;;;;2264930;61;20431;-52
2022/07/09 02:22:24;0.00;0.00;0.62;0.00;0.00;0.62;2.60;2.30;;;25.80;35.90;;;;;;2264286;61;20771;-54
2022/07/09 02:25:10;0.00;0.00;0.62;0.00;0.00;0.62;2.93;1.97;;;25.70;35.20;;;;;;2265083;61;20399;-51
2022/07/09 02:27:55;0.00;0.00;0.62;0.00;0.00;0.62;3.83;2.00;;;25.60;35.30;;;;;;2264449;61;20365;-52
2022/07/09 02:30:40;0.00;0.00;0.62;0.00;0.00;0.62;2.37;1.80;;;25.60;35.40;;;;;;2264711;61;20368;-52
2022/07/09 02:33:25;0.00;0.00;0.62;0.00;0.00;0.62;2.63;1.90;;;25.60;35.50;;;;;;2265302;61;20739;-52
2022/07/09 02:36:10;0.00;0.00;0.62;0.00;0.00;0.62;2.17;1.70;;;25.60;35.60;;;;;;2263620;61;20419;-54
2022/07/09 02:38:54;0.00;0.00;0.62;0.00;0.00;0.62;2.60;1.97;;;25.60;35.70;;;;;;2265327;61;20438;-52
2022/07/09 02:41:40;0.00;0.00;0.62;0.00;0.00;0.62;2.27;1.63;;;25.60;35.70;;;;;;2264788;61;20368;-52
2022/07/09 02:44:26;0.00;0.00;0.62;0.00;0.00;0.62;3.20;2.10;;;25.60;35.70;;;;;;2264020;61;20376;-54
2022/07/09 02:47:11;0.00;0.00;0.62;0.00;0.00;0.62;2.53;1.60;;;25.60;35.70;;;;;;2265045;61;20364;-52
2022/07/09 02:49:56;0.00;0.00;0.62;0.00;0.00;0.62;2.70;1.80;;;25.60;35.70;;;;;;2265005;61;20365;-55
2022/07/09 02:52:41;0.00;0.00;0.62;0.00;0.00;0.62;2.60;1.83;;;25.60;35.70;;;;;;2264343;61;21140;-53
2022/07/09 02:55:25;0.00;0.00;0.62;0.00;0.00;0.62;3.60;1.90;;;25.60;35.70;;;;;;2264859;61;20384;-55
2022/07/09 02:58:10;0.00;0.00;0.62;0.00;0.00;0.62;2.93;2.17;;;25.70;35.80;;;;;;2260741;61;20487;-57
2022/07/09 03:00:57;0.00;0.00;0.62;0.00;0.00;0.62;4.13;2.53;;;25.70;35.80;;;;;;2265508;61;20387;-56
2022/07/09 03:03:41;0.00;0.00;0.62;0.00;0.00;0.62;2.73;1.80;;;25.60;35.70;;;;;;2264881;61;20384;-53
2022/07/09 03:06:26;0.00;0.00;0.62;0.00;0.00;0.62;2.70;2.10;;;25.60;35.70;;;;;;2264560;61;20368;-51
2022/07/09 03:09:12;0.00;0.00;0.62;0.00;0.00;0.62;4.37;1.70;;;25.60;35.70;;;;;;2265281;61;20902;-52
2022/07/09 03:11:57;0.00;0.00;0.62;0.00;0.00;0.62;3.30;2.13;;;25.60;35.70;;;;;;2265209;61;20590;-51
2022/07/09 03:14:42;0.00;0.00;0.62;0.00;0.00;0.62;3.53;1.83;;;25.60;35.70;;;;;;2264476;61;20945;-51
2022/07/09 03:17:28;0.00;0.00;0.62;0.00;0.00;0.62;3.73;1.93;;;25.60;35.70;;;;;;2265137;61;20379;-51
2022/07/09 03:20:14;0.00;0.00;0.62;0.00;0.00;0.62;3.27;1.87;;;25.60;35.80;;;;;;2264590;61;20419;-51
2022/07/09 03:22:58;0.00;0.00;0.62;0.00;0.00;0.62;2.00;1.70;;;25.60;35.80;;;;;;2265179;61;20368;-51
2022/07/09 03:25:44;0.00;0.00;0.62;0.00;0.00;0.62;4.40;2.53;;;25.50;35.80;;;;;;2265155;61;20851;-53
2022/07/09 03:28:29;0.00;0.00;0.62;0.00;0.00;0.62;4.37;2.13;;;25.50;35.80;;;;;;2263952;61;20364;-53
2022/07/09 03:31:13;0.00;0.00;0.62;0.00;0.00;0.62;5.10;2.37;;;25.50;35.90;;;;;;2261786;61;20387;-55
2022/07/09 03:34:00;0.00;0.00;0.62;0.00;0.00;0.62;4.50;2.40;;;25.50;35.90;;;;;;2264871;61;20384;-53
2022/07/09 03:36:45;0.00;0.00;0.62;0.00;0.00;0.62;3.20;2.30;;;25.50;36.00;;;;;;2264224;61;20451;-53
2022/07/09 03:39:30;0.00;0.00;0.62;0.00;0.00;0.62;5.23;2.10;;;25.40;36.00;;;;;;2265074;61;20468;-51
2022/07/09 03:42:14;0.00;0.00;0.62;0.00;0.00;0.62;2.43;1.97;;;25.40;36.10;;;;;;2263962;61;20907;-51
2022/07/09 03:44:59;0.00;0.00;0.62;0.00;0.00;0.62;3.03;1.97;;;25.30;36.20;;;;;;2261457;61;20384;-52
2022/07/09 03:47:44;0.00;0.00;0.62;0.00;0.00;0.62;4.50;2.10;;;25.30;36.30;;;;;;2265212;61;20434;-51
2022/07/09 03:50:31;0.00;0.00;0.62;0.00;0.00;0.62;2.40;1.70;;;25.30;36.30;;;;;;2263835;61;20773;-52
2022/07/09 03:53:15;0.00;0.00;0.62;0.00;0.00;0.62;4.67;2.40;;;25.20;36.40;;;;;;2265132;61;20364;-52
2022/07/09 03:56:01;0.00;0.00;0.62;0.00;0.00;0.62;3.40;2.10;;;25.20;36.50;;;;;;2264941;61;20396;-52
2022/07/09 03:58:46;0.00;0.00;0.62;0.00;0.00;0.62;5.27;2.33;;;25.10;36.50;;;;;;2264420;61;20507;-52
2022/07/09 04:01:31;0.00;0.00;0.62;0.00;0.00;0.62;3.70;2.50;;;25.10;36.70;;;;;;2265370;61;20411;-52
2022/07/09 04:04:15;0.00;0.00;0.62;0.00;0.00;0.62;5.37;2.63;;;25.10;36.70;;;;;;2261699;61;20427;-52
2022/07/09 04:07:01;0.00;0.00;0.62;0.00;0.00;0.62;4.33;2.57;;;25.00;36.80;;;;;;2265193;61;20373;-52
2022/07/09 04:09:46;0.00;0.00;0.62;0.00;0.00;0.62;5.73;2.83;;;25.00;36.90;;;;;;2266333;61;20796;-52
2022/07/09 04:12:31;0.00;0.00;0.62;0.00;0.00;0.62;3.00;2.40;;;24.90;37.00;;;;;;2264651;61;20368;-51
2022/07/09 04:15:16;0.00;0.00;0.62;0.00;0.00;0.62;9.60;2.90;;;24.90;37.10;;;;;;2266076;61;20379;-52
2022/07/09 04:18:01;0.00;0.00;0.62;0.00;0.00;0.62;5.00;2.67;;;24.80;37.20;;;;;;2265516;61;20364;-54
2022/07/09 04:20:46;0.00;0.00;0.62;0.00;0.00;0.62;5.67;3.00;;;24.80;37.40;;;;;;2265038;61;20801;-55
2022/07/09 04:23:32;0.00;0.00;0.62;0.00;0.00;0.62;4.00;2.30;;;24.70;37.30;;;;;;2265759;61;20391;-53
2022/07/09 04:26:20;0.00;0.00;0.62;0.00;0.00;0.62;5.80;2.63;;;24.70;37.50;;;;;;2264604;61;20360;-55
2022/07/09 04:29:05;0.00;0.00;0.62;0.00;0.00;0.62;6.37;2.73;;;24.70;37.60;;;;;;2264951;61;20364;-52
2022/07/09 04:31:50;0.00;0.00;0.62;0.00;0.00;0.62;6.60;2.30;;;24.60;37.70;;;;;;2265640;61;20422;-57
2022/07/09 04:34:34;0.00;0.00;0.62;0.00;0.00;0.62;10.37;2.67;;;24.60;37.80;;;;;;2263629;61;20709;-56
2022/07/09 04:37:19;0.00;0.00;0.62;0.00;0.00;0.62;6.83;2.47;;;24.50;37.80;;;;;;2265736;61;20396;-56
2022/07/09 04:40:07;0.00;0.00;0.62;0.00;0.00;0.62;6.43;2.27;;;24.50;38.00;;;;;;2265503;61;20403;-55
2022/07/09 04:42:51;0.00;0.00;0.62;0.00;0.00;0.62;6.17;2.50;;;24.50;38.10;;;;;;2264742;61;20418;-53
2022/07/09 04:45:36;0.00;0.00;0.62;0.00;0.00;0.62;5.43;2.23;;;24.50;38.20;;;;;;2265820;61;20819;-53
2022/07/09 04:48:21;0.00;0.00;0.62;0.00;0.00;0.62;4.57;2.80;;;24.50;38.20;;;;;;2265074;61;20434;-54
2022/07/09 04:51:05;0.00;0.00;0.62;0.00;0.00;0.62;4.50;2.90;;;24.40;38.30;;;;;;2265050;61;20796;-54
2022/07/09 04:53:50;0.00;0.00;0.62;0.00;0.00;0.62;7.77;3.13;;;24.40;38.40;;;;;;2265794;61;20450;-52
2022/07/09 04:56:36;0.00;0.00;0.62;0.00;0.00;0.62;5.70;3.27;;;24.40;38.60;;;;;;2264636;61;20396;-56
2022/07/09 04:59:21;0.00;0.00;0.62;0.00;0.00;0.62;6.53;3.00;;;24.30;38.60;;;;;;2265351;61;20433;-51
2022/07/09 05:02:06;0.00;0.00;0.62;0.00;0.00;0.62;6.83;3.17;;;24.30;39.50;;;;;;2265059;61;20392;-54
2022/07/09 05:04:50;0.00;0.00;0.62;0.00;0.00;0.62;6.13;3.13;;;24.30;38.90;;;;;;2264113;61;20380;-56
2022/07/09 05:07:36;0.00;0.00;0.62;0.00;0.00;0.62;4.53;3.20;;;24.20;39.10;;;;;;2265672;61;20360;-52
2022/07/09 05:10:21;0.00;0.00;0.62;0.00;0.00;0.62;3.53;3.20;;;24.20;39.10;;;;;;2265093;61;20356;-53
2022/07/09 05:13:07;0.00;0.00;0.62;0.00;0.00;0.62;11.27;3.40;;;24.20;39.10;;;;;;2265187;61;20438;-54
2022/07/09 05:15:52;0.00;0.00;0.62;0.00;0.00;0.62;6.67;3.17;;;24.20;39.10;;;;;;2266038;61;20384;-52
2022/07/09 05:18:37;0.00;0.00;0.62;0.00;0.00;0.62;4.73;3.33;;;24.20;39.10;;;;;;2265176;61;20448;-52
2022/07/09 05:21:21;0.00;0.00;0.62;0.00;0.00;0.62;10.40;3.67;;;24.10;39.10;;;;;;2265577;61;20775;-55
2022/07/09 05:24:09;0.00;0.00;0.62;0.00;0.00;0.62;5.10;3.30;;;24.10;39.30;;;;;;2265257;61;20384;-52
2022/07/09 05:26:54;0.00;0.00;0.62;0.00;0.00;0.62;3.87;3.37;;;24.10;39.40;;;;;;2264343;61;20379;-52
2022/07/09 05:29:41;0.00;0.00;0.62;0.00;0.00;0.62;6.10;3.50;;;24.10;39.50;;;;;;2262216;61;20360;-55
2022/07/09 05:32:25;0.00;0.00;0.62;0.00;0.00;0.62;3.60;3.03;;;24.10;40.30;;;;;;2264964;61;20409;-56
2022/07/09 05:35:11;0.00;0.00;0.62;0.00;0.00;0.62;4.80;2.90;;;24.10;39.70;;;;;;2264640;61;20415;-52
2022/07/09 05:37:56;0.00;0.00;0.62;0.00;0.00;0.62;6.90;3.53;;;24.10;40.40;;;;;;2265798;61;20368;-55
2022/07/09 05:40:40;0.00;0.00;0.62;0.00;0.00;0.62;8.13;3.53;;;24.10;39.90;;;;;;2264844;61;20800;-55
2022/07/09 05:43:26;0.00;0.00;0.62;0.00;0.00;0.62;4.43;3.63;;;24.10;39.90;;;;;;2264609;61;20492;-55
2022/07/09 05:46:11;0.00;0.00;0.62;0.00;0.00;0.62;8.50;4.17;;;24.10;40.00;;;;;;2264634;61;20391;-53
2022/07/09 05:48:56;0.00;0.00;0.62;0.00;0.00;0.62;7.43;3.90;;;24.20;40.00;;;;;;2264337;61;20896;-55
2022/07/09 05:51:41;0.00;0.00;0.62;0.00;0.00;0.62;4.90;3.23;;;24.20;40.20;;;;;;2265522;61;20399;-53
2022/07/09 05:54:26;0.00;0.00;0.62;0.00;0.00;0.62;7.20;4.13;;;24.20;40.30;;;;;;2264444;61;20790;-51
2022/07/09 05:57:11;0.00;0.00;0.62;0.00;0.00;0.62;5.00;3.50;;;24.10;40.30;;;;;;2263077;61;20376;-52
2022/07/09 05:59:56;0.00;0.00;0.62;0.00;0.00;0.62;8.93;3.87;;;24.20;40.30;;;;;;2263902;61;20392;-52
2022/07/09 06:02:43;0.00;0.00;0.62;0.00;0.00;0.62;4.77;3.40;;;24.20;40.30;;;;;;2263764;61;20482;-57
2022/07/09 06:05:28;0.00;0.00;0.62;0.00;0.00;0.62;6.53;3.30;;;24.20;40.20;;;;;;2263562;61;20384;-53
2022/07/09 06:08:14;0.00;0.00;0.62;0.00;0.00;0.62;5.60;3.63;;;24.20;40.20;;;;;;2267925;61;20371;-59
2022/07/09 06:10:59;0.00;0.00;0.62;0.00;0.00;0.62;4.30;2.93;;;24.20;40.10;;;;;;2268153;61;20432;-60
2022/07/09 06:13:44;0.00;0.00;0.62;0.00;0.00;0.62;5.70;3.67;;;24.20;40.30;;;;;;2265112;61;20923;-57
2022/07/09 06:16:28;0.00;0.00;0.62;0.00;0.00;0.62;4.57;3.43;;;24.30;40.30;;;;;;2265115;61;20459;-55
2022/07/09 06:19:15;0.00;0.00;0.62;0.00;0.00;0.62;8.37;2.90;;;24.30;40.30;;;;;;2263945;61;20384;-58
2022/07/09 06:22:00;0.00;0.00;0.62;0.00;0.00;0.62;4.97;3.60;;;24.30;40.20;;;;;;2262525;61;20398;-56
2022/07/09 06:24:45;0.00;0.00;0.62;0.00;0.00;0.62;4.67;3.17;;;24.30;40.20;;;;;;2532124;53;20415;-56
2022/07/09 06:27:30;0.00;0.00;0.62;0.00;0.00;0.62;5.73;3.17;;;24.30;40.20;;;;;;2268431;61;20364;-53
2022/07/09 06:30:15;0.00;0.00;0.62;0.00;0.00;0.62;4.87;2.80;;;24.30;40.20;;;;;;2268767;61;20360;-52
2022/07/09 06:33:00;0.00;0.00;0.62;0.00;0.00;0.62;4.50;2.80;;;24.40;40.20;;;;;;2266665;61;20414;-58
2022/07/09 06:35:47;0.00;0.00;0.62;0.00;0.00;0.62;6.90;3.00;;;24.40;40.10;;;;;;2267960;61;20363;-56
2022/07/09 06:38:31;0.00;0.00;0.62;0.00;0.00;0.62;4.50;2.67;;;24.40;40.00;;;;;;2264454;61;20482;-51
2022/07/09 06:41:16;0.00;0.00;0.62;0.00;0.00;0.62;3.80;3.17;;;24.40;40.00;;;;;;2263060;61;20426;-54
2022/07/09 06:44:01;0.00;0.00;0.62;0.00;0.00;0.62;5.07;2.70;;;24.50;39.90;;;;;;2264067;61;20492;-51
2022/07/09 06:46:46;0.00;0.00;0.62;0.00;0.00;0.62;3.80;2.40;;;24.50;39.80;;;;;;2264011;61;20364;-53
2022/07/09 06:49:31;0.00;0.00;0.62;0.00;0.00;0.62;3.70;2.43;;;24.50;39.70;;;;;;2264050;61;20360;-54
2022/07/09 06:52:18;0.00;0.00;0.62;0.00;0.00;0.62;3.03;2.17;;;24.50;39.50;;;;;;2264285;61;20812;-55
2022/07/09 06:55:04;0.00;0.00;0.62;0.00;0.00;0.62;2.70;2.40;;;24.60;39.60;;;;;;2262799;61;20541;-55
2022/07/09 06:57:48;0.00;0.00;0.62;0.00;0.00;0.62;3.03;2.33;;;24.60;39.50;;;;;;2263992;61;20364;-55
2022/07/09 07:00:34;0.00;0.00;0.62;0.00;0.00;0.62;4.10;1.73;;;24.60;39.50;;;;;;2264252;61;20371;-53
2022/07/09 07:03:19;0.00;0.00;0.62;0.00;0.00;0.62;4.80;2.60;;;24.60;39.50;;;;;;2262904;61;20367;-54
2022/07/09 07:06:04;0.00;0.00;0.62;0.00;0.00;0.62;3.80;1.80;;;24.60;39.50;;;;;;2264402;61;20363;-51
2022/07/09 07:08:51;0.00;0.00;0.62;0.00;0.00;0.62;2.60;1.87;;;24.60;39.50;;;;;;2263301;61;20451;-56
2022/07/09 07:11:36;0.00;0.00;0.62;0.00;0.00;0.62;4.77;2.57;;;24.70;39.60;;;;;;2263370;61;20467;-51
2022/07/09 07:14:21;0.00;0.00;0.62;0.00;0.00;0.62;2.97;2.17;;;24.70;39.60;;;;;;2263928;61;20472;-55
2022/07/09 07:17:06;0.00;0.00;0.62;0.00;0.00;0.62;3.70;2.27;;;24.70;39.60;;;;;;2263760;61;20421;-56
2022/07/09 07:19:52;0.00;0.00;0.62;0.00;0.00;0.62;3.47;2.47;;;24.70;39.60;;;;;;2264582;61;20430;-52
2022/07/09 07:22:36;0.00;0.00;0.62;0.00;0.00;0.62;5.30;2.90;;;24.70;40.00;;;;;;2261083;61;20355;-53
2022/07/09 07:25:23;0.00;0.00;0.62;0.00;0.00;0.62;3.37;2.80;;;24.70;40.00;;;;;;2262740;61;20388;-57
2022/07/09 07:28:08;0.00;0.00;0.62;0.00;0.00;0.62;4.27;2.53;;;24.70;40.00;;;;;;2264201;61;20368;-54
2022/07/09 07:30:53;0.00;0.00;0.62;0.00;0.00;0.62;3.23;1.80;;;24.70;40.00;;;;;;2264051;61;20356;-54
2022/07/09 07:33:38;0.00;0.00;0.62;0.00;0.00;0.62;4.20;2.50;;;24.70;40.00;;;;;;2260194;61;20399;-56
2022/07/09 07:36:23;0.00;0.00;0.62;0.00;0.00;0.62;3.00;2.10;;;24.60;40.00;;;;;;2264369;61;20368;-51
2022/07/09 07:39:08;0.00;0.00;0.62;0.00;0.00;0.62;4.90;2.80;;;24.60;40.00;;;;;;2263756;61;20938;-52
2022/07/09 07:41:54;0.00;0.00;0.62;0.00;0.00;0.62;2.63;1.60;;;24.60;40.00;;;;;;2260998;61;20407;-53
2022/07/09 07:44:39;0.00;0.00;0.62;0.00;0.00;0.62;2.50;1.80;;;24.60;39.90;;;;;;2263838;61;20384;-52
2022/07/09 07:47:24;0.00;0.00;0.62;0.00;0.00;0.62;2.67;2.00;;;24.60;40.00;;;;;;2263037;61;20407;-51
2022/07/09 07:50:09;0.00;0.00;0.62;0.00;0.00;0.62;3.33;1.93;;;24.60;40.00;;;;;;2264074;61;20360;-52
2022/07/09 07:52:55;0.00;0.00;0.62;0.00;0.00;0.62;3.60;1.97;;;24.60;40.00;;;;;;2264114;61;20381;-52
2022/07/09 07:55:39;0.00;0.00;0.62;0.00;0.00;0.62;6.83;2.90;;;24.70;40.10;;;;;;2262858;61;20379;-52
2022/07/09 07:58:26;0.00;0.00;0.62;0.00;0.00;0.62;2.50;2.00;;;24.60;40.00;;;;;;2264291;61;20360;-51
2022/07/09 08:01:11;0.00;0.00;0.62;0.00;0.00;0.62;3.87;2.20;;;24.60;40.00;;;;;;2263716;61;20387;-54
2022/07/09 08:03:56;0.00;0.00;0.62;0.00;0.00;0.62;5.17;2.47;;;24.70;40.10;;;;;;2263550;61;20380;-54
2022/07/09 08:06:42;0.00;0.00;0.62;0.00;0.00;0.62;3.53;2.20;;;24.70;40.20;;;;;;2264287;61;20375;-56
2022/07/09 08:09:26;0.00;0.00;0.62;0.00;0.00;0.62;4.13;2.20;;;24.70;40.20;;;;;;2263075;61;20364;-51
2022/07/09 08:12:11;0.00;0.00;0.62;0.00;0.00;0.62;3.13;2.20;;;24.60;40.20;;;;;;2264080;61;20756;-51
2022/07/09 08:14:57;0.00;0.00;0.62;0.00;0.00;0.62;2.67;2.30;;;24.60;40.20;;;;;;2264274;61;20410;-53
2022/07/09 08:17:42;0.00;0.00;0.62;0.00;0.00;0.62;3.80;2.63;;;24.60;40.10;;;;;;2262972;61;20468;-54
2022/07/09 08:20:28;0.00;0.00;0.62;0.00;0.00;0.62;3.00;2.20;;;24.70;40.10;;;;;;2264164;61;20395;-52
2022/07/09 08:23:13;0.00;0.00;0.62;0.00;0.00;0.62;3.73;2.50;;;24.70;40.00;;;;;;2263483;61;20356;-52
2022/07/09 08:25:58;0.00;0.00;0.62;0.00;0.00;0.62;4.07;2.13;;;24.70;40.00;;;;;;2263330;61;20383;-54
2022/07/09 08:28:43;0.00;0.00;0.62;0.00;0.00;0.62;4.00;2.57;;;24.60;39.90;;;;;;2263893;61;20360;-53
2022/07/09 08:31:29;0.00;0.00;0.62;0.00;0.00;0.62;2.50;2.07;;;24.60;39.90;;;;;;2262941;61;20368;-51
2022/07/09 08:34:14;0.00;0.00;0.62;0.00;0.00;0.62;3.83;2.90;;;24.60;39.90;;;;;;2260441;61;20388;-52
2022/07/09 08:36:58;0.00;0.00;0.62;0.00;0.00;0.62;4.50;2.40;;;24.60;39.90;;;;;;2264202;61;20368;-53
2022/07/09 08:39:43;0.00;0.00;0.62;0.00;0.00;0.62;3.40;2.70;;;24.60;40.00;;;;;;2262792;61;20941;-52
2022/07/09 08:42:28;0.00;0.00;0.62;0.00;0.00;0.62;3.53;2.20;;;24.60;40.00;;;;;;2263906;61;20880;-53
2022/07/09 08:45:14;0.00;0.00;0.62;0.00;0.00;0.62;3.50;2.70;;;24.50;40.00;;;;;;2263419;61;20472;-55
2022/07/09 08:48:01;0.00;0.00;0.62;0.00;0.00;0.62;8.00;2.10;;;24.50;40.20;;;;;;2263255;61;20372;-51
2022/07/09 08:50:47;0.00;0.00;0.62;0.00;0.00;0.62;2.77;1.90;;;24.50;40.10;;;;;;2264138;61;20431;-52
2022/07/09 08:53:34;0.00;0.00;0.62;0.00;0.00;0.62;2.80;2.33;;;24.50;40.10;;;;;;2262481;61;20426;-54
2022/07/09 08:56:19;0.00;0.00;0.62;0.00;0.00;0.62;3.63;2.10;;;24.50;40.10;;;;;;2263838;61;20363;-54
2022/07/09 08:59:03;0.00;0.00;0.62;0.00;0.00;0.62;2.80;1.50;;;24.50;40.10;;;;;;2263939;61;20414;-51
2022/07/09 09:01:49;0.00;0.00;0.62;0.00;0.00;0.62;2.30;1.90;;;24.50;40.00;;;;;;2262705;61;20407;-53
2022/07/09 09:04:35;0.00;0.00;0.62;0.00;0.00;0.62;2.67;2.00;;;24.60;40.10;;;;;;2263810;61;20437;-52
2022/07/09 09:07:21;0.00;0.00;0.62;0.00;0.00;0.62;2.03;1.83;;;24.50;40.00;;;;;;2263587;61;20523;-54
2022/07/09 09:10:08;0.00;0.00;0.62;0.00;0.00;0.62;3.63;2.30;;;24.60;40.00;;;;;;2263347;61;20359;-51
2022/07/09 09:12:57;0.00;0.00;0.62;0.00;0.00;0.62;3.60;2.03;;;24.60;39.90;;;;;;2263923;61;20424;-54
2022/07/09 09:15:42;0.00;0.00;0.62;0.00;0.00;0.62;4.70;2.00;;;24.60;39.90;;;;;;2262585;61;20448;-54
2022/07/09 09:18:27;0.00;0.00;0.62;0.00;0.00;0.62;3.03;2.30;;;24.60;39.70;;;;;;2260729;61;20363;-53
2022/07/09 09:21:14;0.00;0.00;0.62;0.00;0.00;0.62;3.10;2.27;;;24.70;39.80;;;;;;2263898;61;20437;-56
2022/07/09 09:24:00;0.00;0.00;0.62;0.00;0.00;0.62;4.67;2.40;;;24.70;39.60;;;;;;2259240;61;20898;-55
2022/07/09 09:26:45;0.00;0.00;0.62;0.00;0.00;0.62;5.70;2.27;;;24.60;39.50;;;;;;2263898;61;20407;-54
2022/07/09 09:29:30;0.00;0.00;0.62;0.00;0.00;0.62;4.20;2.40;;;24.70;39.60;;;;;;2263686;61;20363;-55
2022/07/09 09:32:19;0.00;0.00;0.62;0.00;0.00;0.62;3.43;1.90;;;24.70;39.60;;;;;;2263253;61;20411;-55
2022/07/09 09:35:05;0.00;0.00;0.62;0.00;0.00;0.62;3.50;2.20;;;24.70;39.60;;;;;;2263686;61;20435;-54
2022/07/09 09:37:53;0.00;0.00;0.62;0.00;0.00;0.62;3.37;1.93;;;24.70;39.60;;;;;;2259555;61;20376;-52
2022/07/09 09:40:39;0.00;0.00;0.62;0.00;0.00;0.62;4.50;2.03;;;24.70;39.60;;;;;;2263771;61;20387;-53
2022/07/09 09:43:26;0.00;0.00;0.62;0.00;0.00;0.62;3.10;2.07;;;24.70;39.60;;;;;;2263418;61;20819;-56
2022/07/09 09:46:11;0.00;0.00;0.62;0.00;0.00;0.62;2.90;1.90;;;24.70;39.60;;;;;;2262904;61;20364;-52
2022/07/09 09:48:57;0.00;0.00;0.62;0.00;0.00;0.62;2.73;1.97;;;24.80;39.70;;;;;;2263776;61;20423;-55
2022/07/09 09:51:51;0.00;0.00;0.62;0.00;0.00;0.62;4.60;2.40;;;24.80;39.50;;;;;;2260485;61;20838;-51
2022/07/09 09:54:40;0.00;0.00;0.62;0.00;0.00;0.62;4.00;1.80;;;24.80;39.30;;;;;;2263291;61;20833;-51
2022/07/09 09:57:27;0.00;0.00;0.62;0.00;0.00;0.62;3.17;1.63;;;24.90;39.20;;;;;;2264243;61;20364;-52
2022/07/09 10:00:14;0.00;0.00;0.62;0.00;0.00;0.62;4.13;2.20;;;24.90;39.00;;;;;;2257493;61;20392;-51
2022/07/09 10:03:02;0.00;0.00;0.62;0.00;0.00;0.62;1.87;1.40;;;24.90;38.90;;;;;;2264222;61;20407;-53
2022/07/09 10:05:47;0.00;0.00;0.62;0.00;0.00;0.62;3.53;1.53;;;25.00;39.00;;;;;;2264356;61;20383;-52
2022/07/09 10:08:32;0.00;0.00;0.62;0.00;0.00;0.62;2.87;2.00;;;25.00;38.90;;;;;;2263443;61;20367;-52
2022/07/09 10:11:19;0.00;0.00;0.62;0.00;0.00;0.62;2.80;2.10;;;25.00;38.80;;;;;;2264366;61;20387;-52
2022/07/09 10:14:04;0.00;0.00;0.62;0.00;0.00;0.62;3.37;2.07;;;25.00;38.70;;;;;;2263824;61;20928;-55
2022/07/09 10:16:49;0.00;0.00;0.62;0.00;0.00;0.62;5.00;2.20;;;25.00;38.80;;;;;;2260575;61;21050;-51
2022/07/09 10:19:34;0.00;0.00;0.62;0.00;0.00;0.62;2.40;2.03;;;25.00;38.70;;;;;;2264282;61;20391;-53
2022/07/09 10:22:20;0.00;0.00;0.62;0.00;0.00;0.62;3.00;1.90;;;25.10;38.80;;;;;;2263291;61;20363;-52
2022/07/09 10:25:06;0.00;0.00;0.62;0.00;0.00;0.62;2.73;2.13;;;25.10;38.80;;;;;;2263954;61;20426;-51
2022/07/09 10:27:52;0.00;0.00;0.62;0.00;0.00;0.62;5.80;1.80;;;25.10;38.60;;;;;;2264482;61;20419;-51
2022/07/09 10:30:37;0.00;0.00;0.62;0.00;0.00;0.62;3.60;2.30;;;25.10;38.60;;;;;;2263223;61;20379;-52
2022/07/09 10:33:30;0.00;0.00;0.62;0.00;0.00;0.62;2.57;2.30;;;25.20;38.60;;;;;;2264188;61;20387;-51
2022/07/09 10:36:17;0.00;0.00;0.62;0.00;0.00;0.62;2.20;1.87;;;25.20;38.60;;;;;;2264053;61;20359;-55
2022/07/09 10:39:12;0.00;0.00;0.62;0.00;0.00;0.62;4.20;1.90;;;25.20;38.40;;;;;;2263498;61;20494;-52
2022/07/09 10:42:02;0.00;0.00;0.62;0.00;0.00;0.62;1.87;1.70;;;25.20;38.20;;;;;;2264417;61;20455;-53
2022/07/09 10:44:49;0.00;0.00;0.62;0.00;0.00;0.62;2.80;1.63;;;25.30;38.10;;;;;;2263050;61;20442;-51
2022/07/09 10:47:40;0.00;0.00;0.62;0.00;0.00;0.62;3.20;2.20;;;25.30;38.00;;;;;;2264209;61;20486;-51
2022/07/09 10:50:28;0.00;0.00;0.62;0.00;0.00;0.62;2.70;1.73;;;25.30;38.00;;;;;;2264455;61;20419;-53
2022/07/09 10:53:14;0.00;0.00;0.62;0.00;0.00;0.62;3.10;1.77;;;25.30;37.60;;;;;;2259785;61;20364;-52